sensor_id;sensor_type;location;lat;lon;timestamp;P1;durP1;ratioP1;P2;durP2;ratioP2
20209;SDS011;10264;53.178;5.840;2023-09-19T00:17:13;9.27;;;3.27;;
20209;SDS011;10264;53.178;5.840;2023-09-19T00:24:01;8.03;;;3.30;;
20209;SDS011;10264;53.178;5.840;2023-09-19T00:31:03;10.97;;;4.23;;
20209;SDS011;10264;53.178;5.840;2023-09-19T00:37:24;9.83;;;3.87;;
20209;SDS011;10264;53.178;5.840;2023-09-19T00:43:31;15.03;;;5.53;;
20209;SDS011;10264;53.178;5.840;2023-09-19T00:46:07;11.10;;;4.60;;
20209;SDS011;10264;53.178;5.840;2023-09-19T00:48:43;11.07;;;4.40;;
20209;SDS011;10264;53.178;5.840;2023-09-19T00:52:07;15.47;;;5.37;;
20209;SDS011;10264;53.178;5.840;2023-09-19T00:54:50;6.27;;;3.60;;
20209;SDS011;10264;53.178;5.840;2023-09-19T00:57:31;7.07;;;3.37;;
20209;SDS011;10264;53.178;5.840;2023-09-19T01:00:31;11.27;;;3.87;;
20209;SDS011;10264;53.178;5.840;2023-09-19T01:06:53;7.93;;;3.53;;
20209;SDS011;10264;53.178;5.840;2023-09-19T01:13:35;8.23;;;4.07;;
20209;SDS011;10264;53.178;5.840;2023-09-19T01:32:03;4.50;;;3.33;;
20209;SDS011;10264;53.178;5.840;2023-09-19T01:35:07;11.77;;;3.53;;
20209;SDS011;10264;53.178;5.840;2023-09-19T01:47:56;12.57;;;3.70;;
20209;SDS011;10264;53.178;5.840;2023-09-19T01:50:45;9.33;;;3.60;;
20209;SDS011;10264;53.178;5.840;2023-09-19T01:54:12;11.07;;;3.60;;
20209;SDS011;10264;53.178;5.840;2023-09-19T02:03:57;12.50;;;3.50;;
20209;SDS011;10264;53.178;5.840;2023-09-19T02:07:11;7.53;;;3.50;;
20209;SDS011;10264;53.178;5.840;2023-09-19T02:13:57;9.67;;;3.87;;
20209;SDS011;10264;53.178;5.840;2023-09-19T02:30:45;8.17;;;4.00;;
20209;SDS011;10264;53.178;5.840;2023-09-19T02:40:05;10.17;;;3.70;;
20209;SDS011;10264;53.178;5.840;2023-09-19T02:46:13;8.43;;;3.73;;
20209;SDS011;10264;53.178;5.840;2023-09-19T02:48:52;8.57;;;3.23;;
20209;SDS011;10264;53.178;5.840;2023-09-19T02:51:40;11.70;;;3.60;;
20209;SDS011;10264;53.178;5.840;2023-09-19T02:54:19;10.67;;;3.63;;
20209;SDS011;10264;53.178;5.840;2023-09-19T02:57:06;6.17;;;2.90;;
20209;SDS011;10264;53.178;5.840;2023-09-19T02:59:40;13.13;;;3.60;;
20209;SDS011;10264;53.178;5.840;2023-09-19T03:02:38;8.30;;;3.70;;
20209;SDS011;10264;53.178;5.840;2023-09-19T03:05:41;10.57;;;3.57;;
20209;SDS011;10264;53.178;5.840;2023-09-19T03:08:12;6.87;;;2.83;;
20209;SDS011;10264;53.178;5.840;2023-09-19T03:10:48;11.37;;;3.47;;
20209;SDS011;10264;53.178;5.840;2023-09-19T03:13:20;15.90;;;4.30;;
20209;SDS011;10264;53.178;5.840;2023-09-19T03:16:02;12.50;;;3.63;;
20209;SDS011;10264;53.178;5.840;2023-09-19T03:18:34;8.97;;;3.83;;
20209;SDS011;10264;53.178;5.840;2023-09-19T03:24:19;6.93;;;3.40;;
20209;SDS011;10264;53.178;5.840;2023-09-19T03:27:09;9.10;;;3.40;;
20209;SDS011;10264;53.178;5.840;2023-09-19T03:29:58;9.93;;;3.53;;
20209;SDS011;10264;53.178;5.840;2023-09-19T03:32:28;13.80;;;3.50;;
20209;SDS011;10264;53.178;5.840;2023-09-19T03:35:01;10.57;;;3.47;;
20209;SDS011;10264;53.178;5.840;2023-09-19T03:37:47;7.77;;;3.40;;
20209;SDS011;10264;53.178;5.840;2023-09-19T03:41:04;8.77;;;3.40;;
20209;SDS011;10264;53.178;5.840;2023-09-19T03:43:40;9.77;;;3.67;;
20209;SDS011;10264;53.178;5.840;2023-09-19T03:53:33;10.47;;;3.57;;
20209;SDS011;10264;53.178;5.840;2023-09-19T04:00:09;9.63;;;3.67;;
20209;SDS011;10264;53.178;5.840;2023-09-19T04:03:26;9.00;;;3.33;;
20209;SDS011;10264;53.178;5.840;2023-09-19T04:10:00;12.63;;;3.57;;
20209;SDS011;10264;53.178;5.840;2023-09-19T04:12:31;8.37;;;3.67;;
20209;SDS011;10264;53.178;5.840;2023-09-19T04:15:14;11.47;;;3.80;;
20209;SDS011;10264;53.178;5.840;2023-09-19T04:18:28;12.97;;;3.70;;
20209;SDS011;10264;53.178;5.840;2023-09-19T04:21:07;9.90;;;3.33;;
20209;SDS011;10264;53.178;5.840;2023-09-19T04:24:04;9.40;;;3.40;;
20209;SDS011;10264;53.178;5.840;2023-09-19T04:27:14;10.03;;;3.70;;
20209;SDS011;10264;53.178;5.840;2023-09-19T04:30:30;10.73;;;3.57;;
20209;SDS011;10264;53.178;5.840;2023-09-19T04:33:00;9.40;;;3.33;;
20209;SDS011;10264;53.178;5.840;2023-09-19T04:35:27;9.47;;;3.97;;
20209;SDS011;10264;53.178;5.840;2023-09-19T04:41:09;9.27;;;3.43;;
20209;SDS011;10264;53.178;5.840;2023-09-19T04:47:19;9.77;;;3.97;;
20209;SDS011;10264;53.178;5.840;2023-09-19T04:50:12;8.77;;;3.53;;
20209;SDS011;10264;53.178;5.840;2023-09-19T04:52:42;9.13;;;3.60;;
20209;SDS011;10264;53.178;5.840;2023-09-19T04:55:36;8.43;;;3.40;;
20209;SDS011;10264;53.178;5.840;2023-09-19T04:58:19;10.27;;;3.60;;
20209;SDS011;10264;53.178;5.840;2023-09-19T05:01:08;9.80;;;3.93;;
20209;SDS011;10264;53.178;5.840;2023-09-19T05:03:50;8.53;;;3.80;;
20209;SDS011;10264;53.178;5.840;2023-09-19T05:06:48;13.13;;;3.87;;
20209;SDS011;10264;53.178;5.840;2023-09-19T05:09:18;8.57;;;3.73;;
20209;SDS011;10264;53.178;5.840;2023-09-19T05:11:54;9.40;;;4.13;;
20209;SDS011;10264;53.178;5.840;2023-09-19T05:18:16;14.53;;;3.40;;
20209;SDS011;10264;53.178;5.840;2023-09-19T06:16:05;12.33;;;4.10;;
20209;SDS011;10264;53.178;5.840;2023-09-19T06:36:23;10.57;;;4.37;;
20209;SDS011;10264;53.178;5.840;2023-09-19T06:50:02;9.10;;;4.00;;
20209;SDS011;10264;53.178;5.840;2023-09-19T07:06:25;10.80;;;6.60;;
20209;SDS011;10264;53.178;5.840;2023-09-19T07:19:37;12.33;;;5.00;;
20209;SDS011;10264;53.178;5.840;2023-09-19T07:25:12;9.80;;;4.70;;
20209;SDS011;10264;53.178;5.840;2023-09-19T07:28:20;14.27;;;5.00;;
20209;SDS011;10264;53.178;5.840;2023-09-19T07:31:17;11.77;;;5.33;;
20209;SDS011;10264;53.178;5.840;2023-09-19T07:40:17;7.17;;;5.00;;
20209;SDS011;10264;53.178;5.840;2023-09-19T07:43:01;15.10;;;6.13;;
20209;SDS011;10264;53.178;5.840;2023-09-19T07:46:02;9.47;;;5.87;;
20209;SDS011;10264;53.178;5.840;2023-09-19T07:49:12;11.57;;;6.07;;
20209;SDS011;10264;53.178;5.840;2023-09-19T07:55:31;15.40;;;6.10;;
20209;SDS011;10264;53.178;5.840;2023-09-19T07:58:24;10.40;;;5.10;;
20209;SDS011;10264;53.178;5.840;2023-09-19T08:01:16;11.03;;;5.50;;
20209;SDS011;10264;53.178;5.840;2023-09-19T08:04:21;10.93;;;4.63;;
20209;SDS011;10264;53.178;5.840;2023-09-19T08:06:59;11.70;;;5.30;;
20209;SDS011;10264;53.178;5.840;2023-09-19T08:09:26;12.03;;;5.20;;
20209;SDS011;10264;53.178;5.840;2023-09-19T08:12:11;14.20;;;6.27;;
20209;SDS011;10264;53.178;5.840;2023-09-19T08:18:32;12.30;;;5.37;;
20209;SDS011;10264;53.178;5.840;2023-09-19T08:21:03;14.63;;;5.63;;
20209;SDS011;10264;53.178;5.840;2023-09-19T08:23:30;13.87;;;5.50;;
20209;SDS011;10264;53.178;5.840;2023-09-19T08:26:14;11.90;;;5.80;;
20209;SDS011;10264;53.178;5.840;2023-09-19T08:29:07;12.10;;;6.27;;
20209;SDS011;10264;53.178;5.840;2023-09-19T08:31:38;12.47;;;5.80;;
20209;SDS011;10264;53.178;5.840;2023-09-19T08:34:09;10.67;;;6.40;;
20209;SDS011;10264;53.178;5.840;2023-09-19T08:36:39;12.87;;;7.00;;
20209;SDS011;10264;53.178;5.840;2023-09-19T08:39:08;14.10;;;7.40;;
20209;SDS011;10264;53.178;5.840;2023-09-19T08:42:04;14.10;;;8.67;;
20209;SDS011;10264;53.178;5.840;2023-09-19T08:44:54;11.03;;;7.70;;
20209;SDS011;10264;53.178;5.840;2023-09-19T08:47:33;11.77;;;7.17;;
20209;SDS011;10264;53.178;5.840;2023-09-19T08:53:42;11.20;;;6.40;;
20209;SDS011;10264;53.178;5.840;2023-09-19T08:56:27;10.20;;;6.97;;
20209;SDS011;10264;53.178;5.840;2023-09-19T08:59:10;9.47;;;7.50;;
20209;SDS011;10264;53.178;5.840;2023-09-19T09:02:06;11.33;;;6.57;;
20209;SDS011;10264;53.178;5.840;2023-09-19T09:05:12;13.33;;;8.77;;
20209;SDS011;10264;53.178;5.840;2023-09-19T09:10:55;11.40;;;5.57;;
20209;SDS011;10264;53.178;5.840;2023-09-19T09:13:48;10.20;;;7.17;;
20209;SDS011;10264;53.178;5.840;2023-09-19T09:19:43;10.57;;;7.63;;
20209;SDS011;10264;53.178;5.840;2023-09-19T09:22:18;14.63;;;8.37;;
20209;SDS011;10264;53.178;5.840;2023-09-19T09:25:06;14.33;;;8.67;;
20209;SDS011;10264;53.178;5.840;2023-09-19T09:28:01;13.43;;;8.67;;
20209;SDS011;10264;53.178;5.840;2023-09-19T09:31:11;15.30;;;6.97;;
20209;SDS011;10264;53.178;5.840;2023-09-19T09:33:56;15.73;;;11.90;;
20209;SDS011;10264;53.178;5.840;2023-09-19T09:36:38;14.57;;;8.00;;
20209;SDS011;10264;53.178;5.840;2023-09-19T09:39:29;16.90;;;8.80;;
20209;SDS011;10264;53.178;5.840;2023-09-19T09:42:06;13.90;;;8.20;;
20209;SDS011;10264;53.178;5.840;2023-09-19T09:45:26;12.93;;;10.00;;
20209;SDS011;10264;53.178;5.840;2023-09-19T09:48:24;11.03;;;8.70;;
20209;SDS011;10264;53.178;5.840;2023-09-19T09:51:30;12.07;;;8.10;;
20209;SDS011;10264;53.178;5.840;2023-09-19T09:54:12;14.37;;;9.73;;
20209;SDS011;10264;53.178;5.840;2023-09-19T09:57:06;12.80;;;8.00;;
20209;SDS011;10264;53.178;5.840;2023-09-19T09:59:56;10.97;;;7.73;;
20209;SDS011;10264;53.178;5.840;2023-09-19T10:02:35;14.97;;;8.73;;
20209;SDS011;10264;53.178;5.840;2023-09-19T10:05:29;12.53;;;8.80;;
20209;SDS011;10264;53.178;5.840;2023-09-19T10:08:11;16.67;;;11.00;;
20209;SDS011;10264;53.178;5.840;2023-09-19T10:10:55;18.43;;;9.57;;
20209;SDS011;10264;53.178;5.840;2023-09-19T10:13:37;16.13;;;9.50;;
20209;SDS011;10264;53.178;5.840;2023-09-19T10:19:57;14.00;;;7.43;;
20209;SDS011;10264;53.178;5.840;2023-09-19T10:25:41;16.63;;;9.13;;
20209;SDS011;10264;53.178;5.840;2023-09-19T10:28:35;15.00;;;8.03;;
20209;SDS011;10264;53.178;5.840;2023-09-19T10:31:11;8.77;;;7.30;;
20209;SDS011;10264;53.178;5.840;2023-09-19T10:33:47;16.13;;;8.50;;
20209;SDS011;10264;53.178;5.840;2023-09-19T10:36:23;14.30;;;8.27;;
20209;SDS011;10264;53.178;5.840;2023-09-19T10:39:07;14.93;;;8.60;;
20209;SDS011;10264;53.178;5.840;2023-09-19T10:41:38;13.40;;;7.30;;
20209;SDS011;10264;53.178;5.840;2023-09-19T10:44:26;12.57;;;7.87;;
20209;SDS011;10264;53.178;5.840;2023-09-19T10:47:08;13.70;;;8.43;;
20209;SDS011;10264;53.178;5.840;2023-09-19T10:59:39;14.90;;;8.80;;
20209;SDS011;10264;53.178;5.840;2023-09-19T11:09:52;10.10;;;7.10;;
20209;SDS011;10264;53.178;5.840;2023-09-19T11:22:15;14.17;;;6.47;;
20209;SDS011;10264;53.178;5.840;2023-09-19T11:24:47;13.97;;;7.47;;
20209;SDS011;10264;53.178;5.840;2023-09-19T11:27:17;13.70;;;7.43;;
20209;SDS011;10264;53.178;5.840;2023-09-19T11:29:52;16.57;;;6.90;;
20209;SDS011;10264;53.178;5.840;2023-09-19T11:41:39;14.10;;;6.47;;
20209;SDS011;10264;53.178;5.840;2023-09-19T11:46:56;14.07;;;5.70;;
20209;SDS011;10264;53.178;5.840;2023-09-19T11:49:42;15.47;;;5.77;;
20209;SDS011;10264;53.178;5.840;2023-09-19T11:52:38;15.43;;;6.40;;
20209;SDS011;10264;53.178;5.840;2023-09-19T12:01:50;14.27;;;6.23;;
20209;SDS011;10264;53.178;5.840;2023-09-19T12:05:03;10.40;;;5.27;;
20209;SDS011;10264;53.178;5.840;2023-09-19T12:08:26;12.50;;;5.63;;
20209;SDS011;10264;53.178;5.840;2023-09-19T12:11:14;16.83;;;5.50;;
20209;SDS011;10264;53.178;5.840;2023-09-19T12:14:26;10.10;;;4.13;;
20209;SDS011;10264;53.178;5.840;2023-09-19T12:20:11;13.70;;;5.23;;
20209;SDS011;10264;53.178;5.840;2023-09-19T12:22:43;13.60;;;5.20;;
20209;SDS011;10264;53.178;5.840;2023-09-19T12:25:57;8.93;;;4.77;;
20209;SDS011;10264;53.178;5.840;2023-09-19T12:28:30;12.23;;;4.43;;
20209;SDS011;10264;53.178;5.840;2023-09-19T12:31:28;12.33;;;4.07;;
20209;SDS011;10264;53.178;5.840;2023-09-19T12:34:15;8.80;;;3.90;;
20209;SDS011;10264;53.178;5.840;2023-09-19T12:37:09;10.47;;;4.00;;
20209;SDS011;10264;53.178;5.840;2023-09-19T12:39:39;11.80;;;4.33;;
20209;SDS011;10264;53.178;5.840;2023-09-19T12:42:54;12.03;;;4.57;;
20209;SDS011;10264;53.178;5.840;2023-09-19T12:46:19;10.90;;;3.77;;
20209;SDS011;10264;53.178;5.840;2023-09-19T12:52:00;10.67;;;4.00;;
20209;SDS011;10264;53.178;5.840;2023-09-19T12:54:42;7.33;;;3.50;;
20209;SDS011;10264;53.178;5.840;2023-09-19T13:00:34;8.43;;;4.40;;
20209;SDS011;10264;53.178;5.840;2023-09-19T13:12:57;7.90;;;3.50;;
20209;SDS011;10264;53.178;5.840;2023-09-19T13:16:20;8.43;;;3.73;;
20209;SDS011;10264;53.178;5.840;2023-09-19T13:42:01;10.07;;;3.50;;
20209;SDS011;10264;53.178;5.840;2023-09-19T13:44:42;9.43;;;3.83;;
20209;SDS011;10264;53.178;5.840;2023-09-19T13:50:49;11.80;;;4.03;;
20209;SDS011;10264;53.178;5.840;2023-09-19T13:53:18;6.70;;;3.63;;
20209;SDS011;10264;53.178;5.840;2023-09-19T13:55:49;7.77;;;3.97;;
20209;SDS011;10264;53.178;5.840;2023-09-19T13:58:46;7.50;;;3.70;;
20209;SDS011;10264;53.178;5.840;2023-09-19T14:01:57;7.87;;;4.03;;
20209;SDS011;10264;53.178;5.840;2023-09-19T14:04:29;7.17;;;3.40;;
20209;SDS011;10264;53.178;5.840;2023-09-19T14:07:05;7.10;;;3.57;;
20209;SDS011;10264;53.178;5.840;2023-09-19T14:12:46;10.10;;;4.43;;
20209;SDS011;10264;53.178;5.840;2023-09-19T14:15:37;9.67;;;4.00;;
20209;SDS011;10264;53.178;5.840;2023-09-19T14:18:12;10.23;;;3.83;;
20209;SDS011;10264;53.178;5.840;2023-09-19T14:21:14;11.47;;;4.40;;
20209;SDS011;10264;53.178;5.840;2023-09-19T14:24:06;12.10;;;4.33;;
20209;SDS011;10264;53.178;5.840;2023-09-19T14:26:49;10.83;;;4.47;;
20209;SDS011;10264;53.178;5.840;2023-09-19T14:29:24;9.83;;;4.17;;
20209;SDS011;10264;53.178;5.840;2023-09-19T14:32:18;11.20;;;4.30;;
20209;SDS011;10264;53.178;5.840;2023-09-19T14:34:51;13.63;;;4.23;;
20209;SDS011;10264;53.178;5.840;2023-09-19T14:37:29;13.97;;;4.77;;
20209;SDS011;10264;53.178;5.840;2023-09-19T14:43:51;15.27;;;4.40;;
20209;SDS011;10264;53.178;5.840;2023-09-19T14:49:38;12.13;;;4.30;;
20209;SDS011;10264;53.178;5.840;2023-09-19T14:52:45;14.33;;;4.33;;
20209;SDS011;10264;53.178;5.840;2023-09-19T14:59:21;13.77;;;4.73;;
20209;SDS011;10264;53.178;5.840;2023-09-19T15:02:11;13.30;;;4.73;;
20209;SDS011;10264;53.178;5.840;2023-09-19T15:04:46;13.70;;;4.90;;
20209;SDS011;10264;53.178;5.840;2023-09-19T15:07:19;15.50;;;4.90;;
20209;SDS011;10264;53.178;5.840;2023-09-19T15:10:10;15.13;;;5.13;;
20209;SDS011;10264;53.178;5.840;2023-09-19T15:16:05;16.37;;;5.57;;
20209;SDS011;10264;53.178;5.840;2023-09-19T15:22:04;19.23;;;6.00;;
20209;SDS011;10264;53.178;5.840;2023-09-19T15:24:36;14.20;;;5.33;;
20209;SDS011;10264;53.178;5.840;2023-09-19T15:27:29;29.57;;;6.53;;
20209;SDS011;10264;53.178;5.840;2023-09-19T15:33:30;23.93;;;6.27;;
20209;SDS011;10264;53.178;5.840;2023-09-19T15:36:44;15.57;;;5.70;;
20209;SDS011;10264;53.178;5.840;2023-09-19T15:39:34;22.73;;;6.40;;
20209;SDS011;10264;53.178;5.840;2023-09-19T15:45:32;14.67;;;5.43;;
20209;SDS011;10264;53.178;5.840;2023-09-19T15:51:29;13.80;;;4.77;;
20209;SDS011;10264;53.178;5.840;2023-09-19T16:00:41;10.87;;;3.20;;
20209;SDS011;10264;53.178;5.840;2023-09-19T16:03:14;6.27;;;3.27;;
20209;SDS011;10264;53.178;5.840;2023-09-19T16:05:45;9.63;;;3.03;;
20209;SDS011;10264;53.178;5.840;2023-09-19T16:08:12;7.90;;;3.37;;
20209;SDS011;10264;53.178;5.840;2023-09-19T16:10:46;8.43;;;3.60;;
20209;SDS011;10264;53.178;5.840;2023-09-19T16:13:21;4.83;;;2.97;;
20209;SDS011;10264;53.178;5.840;2023-09-19T16:19:40;5.97;;;3.40;;
20209;SDS011;10264;53.178;5.840;2023-09-19T16:22:12;10.93;;;3.30;;
20209;SDS011;10264;53.178;5.840;2023-09-19T16:24:57;6.13;;;3.47;;
20209;SDS011;10264;53.178;5.840;2023-09-19T16:27:26;9.60;;;3.30;;
20209;SDS011;10264;53.178;5.840;2023-09-19T16:30:05;7.27;;;3.70;;
20209;SDS011;10264;53.178;5.840;2023-09-19T16:32:39;7.57;;;3.67;;
20209;SDS011;10264;53.178;5.840;2023-09-19T16:35:20;9.10;;;3.77;;
20209;SDS011;10264;53.178;5.840;2023-09-19T16:37:53;9.30;;;3.60;;
20209;SDS011;10264;53.178;5.840;2023-09-19T16:40:23;12.17;;;3.30;;
20209;SDS011;10264;53.178;5.840;2023-09-19T16:42:53;11.43;;;3.37;;
20209;SDS011;10264;53.178;5.840;2023-09-19T16:45:24;11.73;;;3.03;;
20209;SDS011;10264;53.178;5.840;2023-09-19T16:54:30;6.50;;;2.90;;
20209;SDS011;10264;53.178;5.840;2023-09-19T16:57:01;7.77;;;3.00;;
20209;SDS011;10264;53.178;5.840;2023-09-19T17:02:57;8.80;;;3.10;;
20209;SDS011;10264;53.178;5.840;2023-09-19T17:05:43;8.33;;;2.90;;
20209;SDS011;10264;53.178;5.840;2023-09-19T17:19:06;6.53;;;3.37;;
20209;SDS011;10264;53.178;5.840;2023-09-19T17:33:12;7.33;;;3.83;;
20209;SDS011;10264;53.178;5.840;2023-09-19T17:36:14;7.73;;;4.27;;
20209;SDS011;10264;53.178;5.840;2023-09-19T17:39:28;8.07;;;4.30;;
20209;SDS011;10264;53.178;5.840;2023-09-19T17:42:17;7.37;;;5.23;;
20209;SDS011;10264;53.178;5.840;2023-09-19T17:45:08;10.20;;;4.90;;
20209;SDS011;10264;53.178;5.840;2023-09-19T17:48:17;9.10;;;5.23;;
20209;SDS011;10264;53.178;5.840;2023-09-19T17:51:36;11.27;;;4.63;;
20209;SDS011;10264;53.178;5.840;2023-09-19T17:57:49;7.90;;;5.60;;
20209;SDS011;10264;53.178;5.840;2023-09-19T18:03:56;11.23;;;5.70;;
20209;SDS011;10264;53.178;5.840;2023-09-19T18:07:09;10.73;;;5.13;;
20209;SDS011;10264;53.178;5.840;2023-09-19T18:10:04;15.47;;;6.27;;
20209;SDS011;10264;53.178;5.840;2023-09-19T18:12:38;12.87;;;5.80;;
20209;SDS011;10264;53.178;5.840;2023-09-19T18:15:27;8.57;;;5.57;;
20209;SDS011;10264;53.178;5.840;2023-09-19T18:18:15;12.47;;;6.67;;
20209;SDS011;10264;53.178;5.840;2023-09-19T18:31:45;15.60;;;8.33;;
20209;SDS011;10264;53.178;5.840;2023-09-19T18:38:53;14.50;;;8.27;;
20209;SDS011;10264;53.178;5.840;2023-09-19T18:41:33;17.20;;;10.07;;
20209;SDS011;10264;53.178;5.840;2023-09-19T18:44:32;17.03;;;10.67;;
20209;SDS011;10264;53.178;5.840;2023-09-19T18:47:56;15.33;;;9.60;;
20209;SDS011;10264;53.178;5.840;2023-09-19T18:50:28;14.00;;;8.63;;
20209;SDS011;10264;53.178;5.840;2023-09-19T18:56:53;15.37;;;8.43;;
20209;SDS011;10264;53.178;5.840;2023-09-19T18:59:40;13.90;;;8.20;;
20209;SDS011;10264;53.178;5.840;2023-09-19T19:09:26;12.33;;;6.90;;
20209;SDS011;10264;53.178;5.840;2023-09-19T19:18:40;11.67;;;7.50;;
20209;SDS011;10264;53.178;5.840;2023-09-19T19:21:17;13.33;;;5.73;;
20209;SDS011;10264;53.178;5.840;2023-09-19T19:23:51;11.20;;;6.27;;
20209;SDS011;10264;53.178;5.840;2023-09-19T19:26:32;9.63;;;5.97;;
20209;SDS011;10264;53.178;5.840;2023-09-19T19:29:48;11.73;;;6.00;;
20209;SDS011;10264;53.178;5.840;2023-09-19T19:32:50;9.93;;;5.70;;
20209;SDS011;10264;53.178;5.840;2023-09-19T19:39:16;15.33;;;6.60;;
20209;SDS011;10264;53.178;5.840;2023-09-19T19:42:13;12.93;;;6.90;;
20209;SDS011;10264;53.178;5.840;2023-09-19T19:45:27;10.73;;;6.10;;
20209;SDS011;10264;53.178;5.840;2023-09-19T19:48:11;10.57;;;5.83;;
20209;SDS011;10264;53.178;5.840;2023-09-19T19:50:45;10.53;;;6.20;;
20209;SDS011;10264;53.178;5.840;2023-09-19T19:53:31;8.30;;;6.00;;
20209;SDS011;10264;53.178;5.840;2023-09-19T19:56:36;7.87;;;6.20;;
20209;SDS011;10264;53.178;5.840;2023-09-19T19:59:25;14.47;;;6.77;;
20209;SDS011;10264;53.178;5.840;2023-09-19T20:02:05;11.00;;;5.57;;
20209;SDS011;10264;53.178;5.840;2023-09-19T20:04:49;10.33;;;6.37;;
20209;SDS011;10264;53.178;5.840;2023-09-19T20:07:40;15.23;;;7.20;;
20209;SDS011;10264;53.178;5.840;2023-09-19T20:10:26;15.27;;;6.93;;
20209;SDS011;10264;53.178;5.840;2023-09-19T20:13:11;11.30;;;6.77;;
20209;SDS011;10264;53.178;5.840;2023-09-19T20:19:32;10.47;;;7.40;;
20209;SDS011;10264;53.178;5.840;2023-09-19T20:22:15;12.77;;;7.73;;
20209;SDS011;10264;53.178;5.840;2023-09-19T20:25:00;10.90;;;6.33;;
20209;SDS011;10264;53.178;5.840;2023-09-19T20:30:37;12.80;;;6.87;;
20209;SDS011;10264;53.178;5.840;2023-09-19T20:36:21;8.30;;;6.33;;
20209;SDS011;10264;53.178;5.840;2023-09-19T20:38:56;9.90;;;7.00;;
20209;SDS011;10264;53.178;5.840;2023-09-19T20:41:45;8.83;;;6.90;;
20209;SDS011;10264;53.178;5.840;2023-09-19T20:44:25;11.33;;;6.97;;
20209;SDS011;10264;53.178;5.840;2023-09-19T20:47:11;12.27;;;7.57;;
20209;SDS011;10264;53.178;5.840;2023-09-19T20:49:52;16.37;;;8.23;;
20209;SDS011;10264;53.178;5.840;2023-09-19T20:52:39;12.40;;;7.57;;
20209;SDS011;10264;53.178;5.840;2023-09-19T20:55:14;17.27;;;8.70;;
20209;SDS011;10264;53.178;5.840;2023-09-19T20:58:04;17.67;;;7.30;;
20209;SDS011;10264;53.178;5.840;2023-09-19T21:04:04;11.70;;;7.33;;
20209;SDS011;10264;53.178;5.840;2023-09-19T21:09:36;14.30;;;7.43;;
20209;SDS011;10264;53.178;5.840;2023-09-19T21:12:40;16.47;;;7.67;;
20209;SDS011;10264;53.178;5.840;2023-09-19T21:15:11;14.07;;;7.53;;
20209;SDS011;10264;53.178;5.840;2023-09-19T21:17:41;14.60;;;7.87;;
20209;SDS011;10264;53.178;5.840;2023-09-19T21:20:34;17.63;;;7.43;;
20209;SDS011;10264;53.178;5.840;2023-09-19T21:23:09;14.83;;;7.80;;
20209;SDS011;10264;53.178;5.840;2023-09-19T21:25:54;16.03;;;7.37;;
20209;SDS011;10264;53.178;5.840;2023-09-19T21:28:21;16.43;;;8.00;;
20209;SDS011;10264;53.178;5.840;2023-09-19T21:30:59;16.70;;;8.43;;
20209;SDS011;10264;53.178;5.840;2023-09-19T21:33:58;15.00;;;8.00;;
20209;SDS011;10264;53.178;5.840;2023-09-19T21:36:45;17.37;;;8.90;;
20209;SDS011;10264;53.178;5.840;2023-09-19T21:39:28;15.87;;;7.77;;
20209;SDS011;10264;53.178;5.840;2023-09-19T21:42:15;13.03;;;8.73;;
20209;SDS011;10264;53.178;5.840;2023-09-19T21:48:08;14.70;;;7.90;;
20209;SDS011;10264;53.178;5.840;2023-09-19T21:51:15;22.90;;;8.70;;
20209;SDS011;10264;53.178;5.840;2023-09-19T21:54:02;16.67;;;8.00;;
20209;SDS011;10264;53.178;5.840;2023-09-19T21:56:52;15.77;;;8.10;;
20209;SDS011;10264;53.178;5.840;2023-09-19T21:59:24;18.40;;;8.13;;
20209;SDS011;10264;53.178;5.840;2023-09-19T22:02:12;18.70;;;8.73;;
20209;SDS011;10264;53.178;5.840;2023-09-19T22:05:07;15.73;;;7.63;;
20209;SDS011;10264;53.178;5.840;2023-09-19T22:07:39;16.57;;;8.17;;
20209;SDS011;10264;53.178;5.840;2023-09-19T22:10:30;16.63;;;8.17;;
20209;SDS011;10264;53.178;5.840;2023-09-19T22:13:12;11.77;;;7.70;;
20209;SDS011;10264;53.178;5.840;2023-09-19T22:15:54;19.93;;;7.90;;
20209;SDS011;10264;53.178;5.840;2023-09-19T22:18:35;16.03;;;7.80;;
20209;SDS011;10264;53.178;5.840;2023-09-19T22:24:44;17.53;;;7.97;;
20209;SDS011;10264;53.178;5.840;2023-09-19T22:27:37;18.70;;;8.63;;
20209;SDS011;10264;53.178;5.840;2023-09-19T22:30:08;15.03;;;7.67;;
20209;SDS011;10264;53.178;5.840;2023-09-19T22:44:08;13.60;;;6.93;;
20209;SDS011;10264;53.178;5.840;2023-09-19T22:53:37;16.10;;;7.20;;
20209;SDS011;10264;53.178;5.840;2023-09-19T23:02:43;20.63;;;7.33;;
20209;SDS011;10264;53.178;5.840;2023-09-19T23:05:50;14.47;;;6.33;;
20209;SDS011;10264;53.178;5.840;2023-09-19T23:11:11;19.23;;;7.00;;
20209;SDS011;10264;53.178;5.840;2023-09-19T23:13:46;15.13;;;6.37;;
20209;SDS011;10264;53.178;5.840;2023-09-19T23:19:53;16.77;;;6.43;;
20209;SDS011;10264;53.178;5.840;2023-09-19T23:22:25;15.33;;;6.43;;
20209;SDS011;10264;53.178;5.840;2023-09-19T23:25:10;15.20;;;6.10;;
